首页
METAR-TAF:

METAR-TAF

机场 :

Baker City, 俄勒冈州, 美国

纬度: 44-50-14N, 经度: 117-48-33W, 海拔: 1028米

当前天气观测

该预报发布于50分钟前的00:08 UTC
风速12节,风向北转西北
温度 15°C
湿度 67%
气压 1006 hPa
能見度: 16.1公里
少量云层高于4500英尺
散云层高于9000英尺
多云层高于11000英尺

METAR: KBKE 130008Z AUTO 34012KT 10SM FEW045 SCT090 BKN110 15/09 A2970 RMK AO2 RAE2358 P0000 T01500094

时间: 17:58 (00:58 UTC)

预报

该预报发布于1小时和29分钟前的23:29 UTC
预报有效从13日的 00点(UTC)到 13日的 24点(UTC)
风速8节,风向北转西北
能見度: 10公里
多云层高于8000英尺
小阵雨
短暂存在
从 13日的 00点(UTC)到 13日的 04点(UTC)
风速20节,风向多变,有时为35节阵风
能見度: 4.8公里
阴天层高于5000英尺, 积雨云.
雷暴, 小雨
从 13日的 0400点(UTC)
风速6节,风向西转西北
能見度: 10公里
多云层高于10000英尺
附近有阵雨
从 13日的 0800点(UTC)
风速4节,风向多变
能見度: 10公里
多云层高于15000英尺
从 13日的 2000点(UTC)
风速10节,风向西北
能見度: 10公里
多云层高于20000英尺

TAF: KBKE 122329Z 1300/1324 33008KT P6SM -SHRA BKN080 TEMPO 1300/1304 VRB20G35KT 3SM -TSRA OVC050CB FM130400 30006KT P6SM VCSH BKN100 FM130800 VRB04KT P6SM BKN150 FM132000 31010KT P6SM BKN200

超过4000个机场的气象观测和天气预报(METAR&TAF报告)。

可查询的气象台以黄色和红色小点在地图上表示。

将鼠标移到小点上方,可查看气象台名称。

然后点击查看天气观测和预报。

如需切换地图:点击带黑十字的绿色按钮放大地图;点击带横线的绿色按钮缩小地图;或者点击绿色箭头查看邻近地区的地图。


METAR-TAF: